Terminal Aerodrome Forecast
Issued by NWS

Home | Current Version | Previous Version | Graphics & Text | Print | Product List | Glossary On
Versions: 1 2 3 4 5 6 7 8 9 10 11 12 13 14 15 16 17 18 19 20 21 22 23 24 25 26 27 28 29 30 31 32 33 34 35
000
FTUS43 KGRB 271129
TAFRHI
TAF
KRHI 271129Z 2712/2812 30007KT P6SM SCT008 OVC040
      TEMPO 2712/2715 5SM -SHRA BKN008
     FM271500 25008G15KT P6SM BKN015 BKN035
     FM271800 25008G15KT P6SM SCT040 BKN080 PROB30 2722/2802 4SM
      TSRA BR BKN030CB
     FM280200 24003KT P6SM SCT035 SCT080
     FM280500 VRB03KT 4SM BR FEW080
      TEMPO 2807/2811 1/2SM FG VV002=

USA.gov is the U.S. government's official web portal to all federal, state and local government web resources and services.